sensor_id;sensor_type;location;lat;lon;timestamp;P1;durP1;ratioP1;P2;durP2;ratioP2
24102;SDS011;12278;53.058;9.028;2023-02-03T00:03:42;13.33;;;9.50;;
24102;SDS011;12278;53.058;9.028;2023-02-03T00:07:42;16.60;;;8.87;;
24102;SDS011;12278;53.058;9.028;2023-02-03T00:11:43;13.10;;;9.23;;
24102;SDS011;12278;53.058;9.028;2023-02-03T00:15:44;14.43;;;10.27;;
24102;SDS011;12278;53.058;9.028;2023-02-03T00:19:44;15.13;;;10.20;;
24102;SDS011;12278;53.058;9.028;2023-02-03T00:23:45;15.87;;;9.13;;
24102;SDS011;12278;53.058;9.028;2023-02-03T00:27:46;18.90;;;10.57;;
24102;SDS011;12278;53.058;9.028;2023-02-03T00:31:46;12.77;;;8.43;;
24102;SDS011;12278;53.058;9.028;2023-02-03T00:35:47;12.30;;;8.23;;
24102;SDS011;12278;53.058;9.028;2023-02-03T00:39:48;16.00;;;10.13;;
24102;SDS011;12278;53.058;9.028;2023-02-03T00:43:49;16.57;;;7.90;;
24102;SDS011;12278;53.058;9.028;2023-02-03T00:47:50;19.57;;;7.73;;
24102;SDS011;12278;53.058;9.028;2023-02-03T00:51:51;9.17;;;7.30;;
24102;SDS011;12278;53.058;9.028;2023-02-03T00:55:52;12.10;;;6.67;;
24102;SDS011;12278;53.058;9.028;2023-02-03T00:59:53;9.90;;;7.10;;
24102;SDS011;12278;53.058;9.028;2023-02-03T01:03:54;9.03;;;7.07;;
24102;SDS011;12278;53.058;9.028;2023-02-03T01:07:55;9.97;;;6.97;;
24102;SDS011;12278;53.058;9.028;2023-02-03T01:11:56;10.53;;;7.30;;
24102;SDS011;12278;53.058;9.028;2023-02-03T01:20:09;10.13;;;6.20;;
24102;SDS011;12278;53.058;9.028;2023-02-03T01:24:13;9.80;;;6.30;;
24102;SDS011;12278;53.058;9.028;2023-02-03T01:28:14;8.63;;;6.37;;
24102;SDS011;12278;53.058;9.028;2023-02-03T01:32:20;8.83;;;5.60;;
24102;SDS011;12278;53.058;9.028;2023-02-03T01:36:22;7.00;;;5.07;;
24102;SDS011;12278;53.058;9.028;2023-02-03T01:40:24;6.93;;;5.50;;
24102;SDS011;12278;53.058;9.028;2023-02-03T01:44:37;7.17;;;4.93;;
24102;SDS011;12278;53.058;9.028;2023-02-03T01:48:39;8.03;;;4.63;;
24102;SDS011;12278;53.058;9.028;2023-02-03T01:52:41;6.90;;;4.67;;
24102;SDS011;12278;53.058;9.028;2023-02-03T01:56:44;7.73;;;4.60;;
24102;SDS011;12278;53.058;9.028;2023-02-03T02:00:50;8.87;;;4.77;;
24102;SDS011;12278;53.058;9.028;2023-02-03T02:09:06;9.47;;;5.00;;
24102;SDS011;12278;53.058;9.028;2023-02-03T02:13:07;8.57;;;5.10;;
24102;SDS011;12278;53.058;9.028;2023-02-03T02:21:23;8.80;;;4.97;;
24102;SDS011;12278;53.058;9.028;2023-02-03T02:25:45;12.50;;;6.23;;
24102;SDS011;12278;53.058;9.028;2023-02-03T02:47:19;6.57;;;5.07;;
24102;SDS011;12278;53.058;9.028;2023-02-03T02:51:21;7.70;;;4.80;;
24102;SDS011;12278;53.058;9.028;2023-02-03T02:55:24;6.97;;;4.83;;
24102;SDS011;12278;53.058;9.028;2023-02-03T02:59:28;5.10;;;3.20;;
24102;SDS011;12278;53.058;9.028;2023-02-03T03:03:28;12.60;;;4.87;;
24102;SDS011;12278;53.058;9.028;2023-02-03T03:07:29;7.23;;;4.67;;
24102;SDS011;12278;53.058;9.028;2023-02-03T03:11:41;5.35;;;4.18;;
24102;SDS011;12278;53.058;9.028;2023-02-03T03:15:46;7.57;;;3.77;;
24102;SDS011;12278;53.058;9.028;2023-02-03T03:19:49;4.40;;;3.50;;
24102;SDS011;12278;53.058;9.028;2023-02-03T03:23:54;4.90;;;3.80;;
24102;SDS011;12278;53.058;9.028;2023-02-03T03:28:01;6.67;;;4.17;;
24102;SDS011;12278;53.058;9.028;2023-02-03T03:32:07;6.80;;;4.37;;
24102;SDS011;12278;53.058;9.028;2023-02-03T03:40:34;12.70;;;4.13;;
24102;SDS011;12278;53.058;9.028;2023-02-03T03:45:26;5.43;;;3.40;;
24102;SDS011;12278;53.058;9.028;2023-02-03T03:49:05;4.40;;;2.97;;
24102;SDS011;12278;53.058;9.028;2023-02-03T03:53:09;9.30;;;3.47;;
24102;SDS011;12278;53.058;9.028;2023-02-03T03:57:30;11.53;;;4.10;;
24102;SDS011;12278;53.058;9.028;2023-02-03T04:01:44;5.03;;;3.25;;
24102;SDS011;12278;53.058;9.028;2023-02-03T04:05:46;5.37;;;3.50;;
24102;SDS011;12278;53.058;9.028;2023-02-03T04:09:46;11.77;;;4.10;;
24102;SDS011;12278;53.058;9.028;2023-02-03T04:13:47;8.80;;;3.87;;
24102;SDS011;12278;53.058;9.028;2023-02-03T04:17:48;9.13;;;4.00;;
24102;SDS011;12278;53.058;9.028;2023-02-03T04:21:48;8.57;;;4.00;;
24102;SDS011;12278;53.058;9.028;2023-02-03T04:25:49;6.20;;;3.93;;
24102;SDS011;12278;53.058;9.028;2023-02-03T04:29:50;5.80;;;4.10;;
24102;SDS011;12278;53.058;9.028;2023-02-03T04:33:51;10.10;;;4.78;;
24102;SDS011;12278;53.058;9.028;2023-02-03T04:37:51;8.13;;;5.30;;
24102;SDS011;12278;53.058;9.028;2023-02-03T04:41:52;6.87;;;4.23;;
24102;SDS011;12278;53.058;9.028;2023-02-03T04:45:53;8.30;;;4.63;;
24102;SDS011;12278;53.058;9.028;2023-02-03T04:49:54;7.03;;;4.47;;
24102;SDS011;12278;53.058;9.028;2023-02-03T04:53:55;6.63;;;3.80;;
24102;SDS011;12278;53.058;9.028;2023-02-03T04:57:57;7.67;;;4.67;;
24102;SDS011;12278;53.058;9.028;2023-02-03T05:02:00;9.93;;;4.37;;
24102;SDS011;12278;53.058;9.028;2023-02-03T05:06:02;5.93;;;3.83;;
24102;SDS011;12278;53.058;9.028;2023-02-03T05:10:04;6.47;;;5.00;;
24102;SDS011;12278;53.058;9.028;2023-02-03T05:14:17;14.53;;;4.63;;
24102;SDS011;12278;53.058;9.028;2023-02-03T05:18:18;9.17;;;4.60;;
24102;SDS011;12278;53.058;9.028;2023-02-03T05:22:19;6.60;;;4.07;;
24102;SDS011;12278;53.058;9.028;2023-02-03T05:26:19;7.87;;;4.27;;
24102;SDS011;12278;53.058;9.028;2023-02-03T05:30:20;6.43;;;3.80;;
24102;SDS011;12278;53.058;9.028;2023-02-03T05:34:21;8.20;;;3.40;;
24102;SDS011;12278;53.058;9.028;2023-02-03T05:38:22;8.02;;;3.78;;
24102;SDS011;12278;53.058;9.028;2023-02-03T05:42:31;8.90;;;4.23;;
24102;SDS011;12278;53.058;9.028;2023-02-03T05:46:31;5.68;;;3.28;;
24102;SDS011;12278;53.058;9.028;2023-02-03T05:50:32;6.53;;;3.88;;
24102;SDS011;12278;53.058;9.028;2023-02-03T06:03:23;5.27;;;4.67;;
24102;SDS011;12278;53.058;9.028;2023-02-03T06:11:27;7.03;;;4.37;;
24102;SDS011;12278;53.058;9.028;2023-02-03T06:15:28;6.73;;;5.07;;
24102;SDS011;12278;53.058;9.028;2023-02-03T06:19:29;6.30;;;4.60;;
24102;SDS011;12278;53.058;9.028;2023-02-03T06:23:29;10.07;;;4.80;;
24102;SDS011;12278;53.058;9.028;2023-02-03T06:27:31;7.20;;;4.33;;
24102;SDS011;12278;53.058;9.028;2023-02-03T06:31:31;11.90;;;4.90;;
24102;SDS011;12278;53.058;9.028;2023-02-03T06:35:32;10.73;;;5.70;;
24102;SDS011;12278;53.058;9.028;2023-02-03T06:39:33;8.00;;;5.30;;
24102;SDS011;12278;53.058;9.028;2023-02-03T06:43:34;11.77;;;5.97;;
24102;SDS011;12278;53.058;9.028;2023-02-03T06:47:37;11.20;;;5.63;;
24102;SDS011;12278;53.058;9.028;2023-02-03T06:51:39;9.67;;;5.17;;
24102;SDS011;12278;53.058;9.028;2023-02-03T06:55:39;12.63;;;6.33;;
24102;SDS011;12278;53.058;9.028;2023-02-03T06:59:40;7.93;;;4.77;;
24102;SDS011;12278;53.058;9.028;2023-02-03T07:03:41;9.20;;;4.70;;
24102;SDS011;12278;53.058;9.028;2023-02-03T07:07:41;6.47;;;4.17;;
24102;SDS011;12278;53.058;9.028;2023-02-03T07:11:42;7.27;;;5.20;;
24102;SDS011;12278;53.058;9.028;2023-02-03T07:15:42;8.83;;;2.73;;
24102;SDS011;12278;53.058;9.028;2023-02-03T07:19:44;7.25;;;3.90;;
24102;SDS011;12278;53.058;9.028;2023-02-03T07:23:45;10.13;;;4.20;;
24102;SDS011;12278;53.058;9.028;2023-02-03T07:27:47;8.10;;;2.70;;
24102;SDS011;12278;53.058;9.028;2023-02-03T07:31:48;6.30;;;3.85;;
24102;SDS011;12278;53.058;9.028;2023-02-03T07:35:52;6.82;;;3.55;;
24102;SDS011;12278;53.058;9.028;2023-02-03T07:39:59;5.68;;;3.33;;
24102;SDS011;12278;53.058;9.028;2023-02-03T07:44:00;6.40;;;3.33;;
24102;SDS011;12278;53.058;9.028;2023-02-03T07:48:00;9.98;;;3.10;;
24102;SDS011;12278;53.058;9.028;2023-02-03T07:52:01;9.90;;;2.85;;
24102;SDS011;12278;53.058;9.028;2023-02-03T07:56:02;5.72;;;3.75;;
24102;SDS011;12278;53.058;9.028;2023-02-03T08:00:04;6.72;;;2.90;;
24102;SDS011;12278;53.058;9.028;2023-02-03T08:04:05;10.10;;;3.17;;
24102;SDS011;12278;53.058;9.028;2023-02-03T08:08:05;6.25;;;3.22;;
24102;SDS011;12278;53.058;9.028;2023-02-03T08:12:06;8.93;;;3.10;;
24102;SDS011;12278;53.058;9.028;2023-02-03T08:16:07;4.13;;;3.22;;
24102;SDS011;12278;53.058;9.028;2023-02-03T08:20:08;7.60;;;3.13;;
24102;SDS011;12278;53.058;9.028;2023-02-03T08:24:09;6.53;;;3.75;;
24102;SDS011;12278;53.058;9.028;2023-02-03T08:28:10;7.22;;;3.20;;
24102;SDS011;12278;53.058;9.028;2023-02-03T08:32:12;6.95;;;2.45;;
24102;SDS011;12278;53.058;9.028;2023-02-03T08:36:14;7.43;;;2.92;;
24102;SDS011;12278;53.058;9.028;2023-02-03T08:40:15;8.75;;;3.78;;
24102;SDS011;12278;53.058;9.028;2023-02-03T08:44:16;8.13;;;3.22;;
24102;SDS011;12278;53.058;9.028;2023-02-03T08:48:18;7.85;;;2.65;;
24102;SDS011;12278;53.058;9.028;2023-02-03T08:52:19;6.88;;;3.15;;
24102;SDS011;12278;53.058;9.028;2023-02-03T08:56:20;10.70;;;3.40;;
24102;SDS011;12278;53.058;9.028;2023-02-03T09:00:21;10.88;;;3.47;;
24102;SDS011;12278;53.058;9.028;2023-02-03T09:04:22;10.57;;;3.70;;
24102;SDS011;12278;53.058;9.028;2023-02-03T09:08:23;8.60;;;3.33;;
24102;SDS011;12278;53.058;9.028;2023-02-03T09:12:24;10.40;;;3.15;;
24102;SDS011;12278;53.058;9.028;2023-02-03T09:16:24;9.27;;;3.28;;
24102;SDS011;12278;53.058;9.028;2023-02-03T09:20:25;10.55;;;2.78;;
24102;SDS011;12278;53.058;9.028;2023-02-03T09:24:26;13.40;;;3.27;;
24102;SDS011;12278;53.058;9.028;2023-02-03T09:28:29;17.00;;;5.00;;
24102;SDS011;12278;53.058;9.028;2023-02-03T09:32:30;11.40;;;3.38;;
24102;SDS011;12278;53.058;9.028;2023-02-03T09:36:30;10.55;;;3.55;;
24102;SDS011;12278;53.058;9.028;2023-02-03T09:40:32;13.27;;;3.60;;
24102;SDS011;12278;53.058;9.028;2023-02-03T09:48:43;13.00;;;3.78;;
24102;SDS011;12278;53.058;9.028;2023-02-03T09:53:03;11.63;;;3.60;;
24102;SDS011;12278;53.058;9.028;2023-02-03T10:01:24;17.13;;;4.55;;
24102;SDS011;12278;53.058;9.028;2023-02-03T10:05:39;20.75;;;4.55;;
24102;SDS011;12278;53.058;9.028;2023-02-03T10:09:48;13.77;;;3.67;;
24102;SDS011;12278;53.058;9.028;2023-02-03T10:18:38;16.25;;;4.72;;
24102;SDS011;12278;53.058;9.028;2023-02-03T10:22:40;15.45;;;4.60;;
24102;SDS011;12278;53.058;9.028;2023-02-03T10:26:44;15.75;;;4.82;;
24102;SDS011;12278;53.058;9.028;2023-02-03T10:30:47;16.90;;;4.60;;
24102;SDS011;12278;53.058;9.028;2023-02-03T10:34:55;13.90;;;4.18;;
24102;SDS011;12278;53.058;9.028;2023-02-03T10:39:03;32.85;;;4.82;;
24102;SDS011;12278;53.058;9.028;2023-02-03T10:43:08;22.77;;;4.40;;
24102;SDS011;12278;53.058;9.028;2023-02-03T10:55:44;14.73;;;4.80;;
24102;SDS011;12278;53.058;9.028;2023-02-03T10:59:48;10.13;;;4.00;;
24102;SDS011;12278;53.058;9.028;2023-02-03T11:03:59;28.00;;;5.65;;
24102;SDS011;12278;53.058;9.028;2023-02-03T11:08:12;15.77;;;4.30;;
24102;SDS011;12278;53.058;9.028;2023-02-03T11:12:15;18.40;;;5.07;;
24102;SDS011;12278;53.058;9.028;2023-02-03T11:16:19;19.17;;;5.20;;
24102;SDS011;12278;53.058;9.028;2023-02-03T11:20:21;17.98;;;5.25;;
24102;SDS011;12278;53.058;9.028;2023-02-03T11:24:32;10.38;;;3.58;;
24102;SDS011;12278;53.058;9.028;2023-02-03T11:28:39;16.15;;;4.47;;
24102;SDS011;12278;53.058;9.028;2023-02-03T11:32:42;19.55;;;4.72;;
24102;SDS011;12278;53.058;9.028;2023-02-03T11:36:45;14.15;;;5.45;;
24102;SDS011;12278;53.058;9.028;2023-02-03T11:40:46;11.38;;;4.43;;
24102;SDS011;12278;53.058;9.028;2023-02-03T12:02:42;14.43;;;4.68;;
24102;SDS011;12278;53.058;9.028;2023-02-03T12:07:04;13.63;;;4.07;;
24102;SDS011;12278;53.058;9.028;2023-02-03T12:15:52;15.52;;;4.72;;
24102;SDS011;12278;53.058;9.028;2023-02-03T12:20:28;16.95;;;4.13;;
24102;SDS011;12278;53.058;9.028;2023-02-03T12:24:52;18.00;;;4.47;;
24102;SDS011;12278;53.058;9.028;2023-02-03T12:33:29;16.02;;;5.07;;
24102;SDS011;12278;53.058;9.028;2023-02-03T12:37:55;7.60;;;3.30;;
24102;SDS011;12278;53.058;9.028;2023-02-03T12:50:59;13.73;;;4.15;;
24102;SDS011;12278;53.058;9.028;2023-02-03T12:55:13;16.20;;;4.97;;
24102;SDS011;12278;53.058;9.028;2023-02-03T12:59:19;16.00;;;3.63;;
24102;SDS011;12278;53.058;9.028;2023-02-03T13:03:32;34.15;;;6.45;;
24102;SDS011;12278;53.058;9.028;2023-02-03T13:07:58;9.82;;;3.45;;
24102;SDS011;12278;53.058;9.028;2023-02-03T13:16:15;9.18;;;3.38;;
24102;SDS011;12278;53.058;9.028;2023-02-03T13:20:21;21.77;;;4.60;;
24102;SDS011;12278;53.058;9.028;2023-02-03T13:24:24;13.63;;;3.80;;
24102;SDS011;12278;53.058;9.028;2023-02-03T13:28:42;12.77;;;3.03;;
24102;SDS011;12278;53.058;9.028;2023-02-03T13:33:12;11.85;;;2.85;;
24102;SDS011;12278;53.058;9.028;2023-02-03T13:37:10;11.90;;;4.38;;
24102;SDS011;12278;53.058;9.028;2023-02-03T13:41:33;15.45;;;3.63;;
24102;SDS011;12278;53.058;9.028;2023-02-03T13:45:47;13.43;;;3.72;;
24102;SDS011;12278;53.058;9.028;2023-02-03T13:49:51;10.32;;;4.25;;
24102;SDS011;12278;53.058;9.028;2023-02-03T13:54:13;14.27;;;5.43;;
24102;SDS011;12278;53.058;9.028;2023-02-03T13:58:19;24.48;;;7.88;;
24102;SDS011;12278;53.058;9.028;2023-02-03T14:02:39;10.32;;;3.25;;
24102;SDS011;12278;53.058;9.028;2023-02-03T14:15:33;18.40;;;5.03;;
24102;SDS011;12278;53.058;9.028;2023-02-03T14:23:56;16.00;;;4.65;;
24102;SDS011;12278;53.058;9.028;2023-02-03T14:28:02;20.27;;;4.13;;
24102;SDS011;12278;53.058;9.028;2023-02-03T14:32:07;15.65;;;3.05;;
24102;SDS011;12278;53.058;9.028;2023-02-03T14:36:24;18.45;;;4.38;;
24102;SDS011;12278;53.058;9.028;2023-02-03T14:53:11;17.17;;;3.83;;
24102;SDS011;12278;53.058;9.028;2023-02-03T15:05:53;12.60;;;3.33;;
24102;SDS011;12278;53.058;9.028;2023-02-03T15:09:56;16.35;;;4.90;;
24102;SDS011;12278;53.058;9.028;2023-02-03T15:14:12;13.75;;;4.07;;
24102;SDS011;12278;53.058;9.028;2023-02-03T15:18:43;11.63;;;4.35;;
24102;SDS011;12278;53.058;9.028;2023-02-03T15:26:59;12.35;;;3.85;;
24102;SDS011;12278;53.058;9.028;2023-02-03T15:35:34;14.80;;;3.78;;
24102;SDS011;12278;53.058;9.028;2023-02-03T15:44:00;15.27;;;3.60;;
24102;SDS011;12278;53.058;9.028;2023-02-03T15:52:25;16.70;;;4.10;;
24102;SDS011;12278;53.058;9.028;2023-02-03T16:00:57;16.30;;;4.83;;
24102;SDS011;12278;53.058;9.028;2023-02-03T16:05:03;17.00;;;5.13;;
24102;SDS011;12278;53.058;9.028;2023-02-03T16:13:31;19.20;;;4.75;;
24102;SDS011;12278;53.058;9.028;2023-02-03T16:17:35;13.20;;;3.90;;
24102;SDS011;12278;53.058;9.028;2023-02-03T16:21:52;18.57;;;4.17;;
24102;SDS011;12278;53.058;9.028;2023-02-03T16:34:30;17.57;;;4.93;;
24102;SDS011;12278;53.058;9.028;2023-02-03T16:38:51;10.93;;;3.70;;
24102;SDS011;12278;53.058;9.028;2023-02-03T16:43:12;11.73;;;4.07;;
24102;SDS011;12278;53.058;9.028;2023-02-03T16:47:35;17.10;;;4.77;;
24102;SDS011;12278;53.058;9.028;2023-02-03T16:56:08;25.87;;;5.63;;
24102;SDS011;12278;53.058;9.028;2023-02-03T17:00:26;20.33;;;4.37;;
24102;SDS011;12278;53.058;9.028;2023-02-03T17:04:35;9.13;;;3.70;;
24102;SDS011;12278;53.058;9.028;2023-02-03T17:08:42;18.67;;;4.47;;
24102;SDS011;12278;53.058;9.028;2023-02-03T17:12:53;13.30;;;5.37;;
24102;SDS011;12278;53.058;9.028;2023-02-03T17:16:54;16.17;;;4.57;;
24102;SDS011;12278;53.058;9.028;2023-02-03T17:21:08;18.37;;;4.90;;
24102;SDS011;12278;53.058;9.028;2023-02-03T17:25:13;26.07;;;5.73;;
24102;SDS011;12278;53.058;9.028;2023-02-03T17:29:23;19.77;;;4.47;;
24102;SDS011;12278;53.058;9.028;2023-02-03T17:33:26;15.57;;;4.33;;
24102;SDS011;12278;53.058;9.028;2023-02-03T17:37:34;20.33;;;4.73;;
24102;SDS011;12278;53.058;9.028;2023-02-03T17:41:37;11.73;;;3.70;;
24102;SDS011;12278;53.058;9.028;2023-02-03T17:45:39;22.30;;;5.50;;
24102;SDS011;12278;53.058;9.028;2023-02-03T17:49:52;15.33;;;4.80;;
24102;SDS011;12278;53.058;9.028;2023-02-03T17:58:28;20.53;;;4.87;;
24102;SDS011;12278;53.058;9.028;2023-02-03T18:02:28;17.80;;;5.07;;
24102;SDS011;12278;53.058;9.028;2023-02-03T18:06:36;17.87;;;4.83;;
24102;SDS011;12278;53.058;9.028;2023-02-03T18:10:37;21.43;;;4.90;;
24102;SDS011;12278;53.058;9.028;2023-02-03T18:14:42;18.97;;;4.00;;
24102;SDS011;12278;53.058;9.028;2023-02-03T18:23:06;17.33;;;5.00;;
24102;SDS011;12278;53.058;9.028;2023-02-03T18:27:12;17.00;;;4.57;;
24102;SDS011;12278;53.058;9.028;2023-02-03T18:31:23;18.73;;;4.53;;
24102;SDS011;12278;53.058;9.028;2023-02-03T18:35:24;14.67;;;5.57;;
24102;SDS011;12278;53.058;9.028;2023-02-03T18:39:24;17.50;;;4.57;;
24102;SDS011;12278;53.058;9.028;2023-02-03T18:43:38;15.03;;;4.93;;
24102;SDS011;12278;53.058;9.028;2023-02-03T18:47:39;26.70;;;7.33;;
24102;SDS011;12278;53.058;9.028;2023-02-03T18:51:53;21.60;;;6.07;;
24102;SDS011;12278;53.058;9.028;2023-02-03T18:55:57;21.63;;;5.27;;
24102;SDS011;12278;53.058;9.028;2023-02-03T19:00:02;16.13;;;4.47;;
24102;SDS011;12278;53.058;9.028;2023-02-03T19:04:04;13.67;;;5.10;;
24102;SDS011;12278;53.058;9.028;2023-02-03T19:08:05;19.17;;;5.33;;
24102;SDS011;12278;53.058;9.028;2023-02-03T19:12:07;17.43;;;4.97;;
24102;SDS011;12278;53.058;9.028;2023-02-03T19:20:34;24.80;;;5.70;;
24102;SDS011;12278;53.058;9.028;2023-02-03T19:24:38;22.77;;;5.80;;
24102;SDS011;12278;53.058;9.028;2023-02-03T19:28:39;17.53;;;5.20;;
24102;SDS011;12278;53.058;9.028;2023-02-03T19:36:58;17.30;;;6.17;;
24102;SDS011;12278;53.058;9.028;2023-02-03T19:40:59;22.93;;;5.37;;
24102;SDS011;12278;53.058;9.028;2023-02-03T19:45:03;27.87;;;6.93;;
24102;SDS011;12278;53.058;9.028;2023-02-03T19:49:05;30.57;;;8.57;;
24102;SDS011;12278;53.058;9.028;2023-02-03T19:53:09;18.40;;;6.43;;
24102;SDS011;12278;53.058;9.028;2023-02-03T19:57:09;19.53;;;6.07;;
24102;SDS011;12278;53.058;9.028;2023-02-03T20:01:10;19.07;;;5.80;;
24102;SDS011;12278;53.058;9.028;2023-02-03T20:09:28;18.57;;;4.73;;
24102;SDS011;12278;53.058;9.028;2023-02-03T20:13:45;27.17;;;5.93;;
24102;SDS011;12278;53.058;9.028;2023-02-03T20:17:46;34.60;;;6.43;;
24102;SDS011;12278;53.058;9.028;2023-02-03T20:21:47;20.33;;;5.73;;
24102;SDS011;12278;53.058;9.028;2023-02-03T20:25:48;22.00;;;4.90;;
24102;SDS011;12278;53.058;9.028;2023-02-03T20:29:50;26.03;;;6.93;;
24102;SDS011;12278;53.058;9.028;2023-02-03T20:33:50;18.50;;;5.43;;
24102;SDS011;12278;53.058;9.028;2023-02-03T20:37:52;22.87;;;5.93;;
24102;SDS011;12278;53.058;9.028;2023-02-03T20:41:53;20.63;;;5.27;;
24102;SDS011;12278;53.058;9.028;2023-02-03T20:46:01;24.30;;;7.20;;
24102;SDS011;12278;53.058;9.028;2023-02-03T20:50:01;34.00;;;7.63;;
24102;SDS011;12278;53.058;9.028;2023-02-03T20:58:41;21.37;;;5.77;;
24102;SDS011;12278;53.058;9.028;2023-02-03T21:02:43;22.87;;;5.93;;
24102;SDS011;12278;53.058;9.028;2023-02-03T21:07:14;22.87;;;7.13;;
24102;SDS011;12278;53.058;9.028;2023-02-03T21:11:17;15.60;;;5.43;;
24102;SDS011;12278;53.058;9.028;2023-02-03T21:15:22;17.27;;;5.90;;
24102;SDS011;12278;53.058;9.028;2023-02-03T21:19:36;19.00;;;5.17;;
24102;SDS011;12278;53.058;9.028;2023-02-03T21:23:37;25.30;;;5.77;;
24102;SDS011;12278;53.058;9.028;2023-02-03T21:27:43;30.07;;;7.47;;
24102;SDS011;12278;53.058;9.028;2023-02-03T21:31:45;33.92;;;7.35;;
24102;SDS011;12278;53.058;9.028;2023-02-03T21:35:46;20.67;;;5.97;;
24102;SDS011;12278;53.058;9.028;2023-02-03T21:39:47;21.90;;;6.13;;
24102;SDS011;12278;53.058;9.028;2023-02-03T21:43:49;25.20;;;7.10;;
24102;SDS011;12278;53.058;9.028;2023-02-03T21:47:55;24.90;;;6.13;;
24102;SDS011;12278;53.058;9.028;2023-02-03T21:51:58;23.70;;;6.13;;
24102;SDS011;12278;53.058;9.028;2023-02-03T21:56:10;33.97;;;7.03;;
24102;SDS011;12278;53.058;9.028;2023-02-03T22:00:40;20.77;;;5.70;;
24102;SDS011;12278;53.058;9.028;2023-02-03T22:04:54;28.83;;;6.80;;
24102;SDS011;12278;53.058;9.028;2023-02-03T22:08:56;19.03;;;5.60;;
24102;SDS011;12278;53.058;9.028;2023-02-03T22:12:57;26.00;;;6.17;;
24102;SDS011;12278;53.058;9.028;2023-02-03T22:16:58;24.50;;;4.57;;
24102;SDS011;12278;53.058;9.028;2023-02-03T22:21:00;13.87;;;3.93;;
24102;SDS011;12278;53.058;9.028;2023-02-03T22:25:02;15.90;;;4.70;;
24102;SDS011;12278;53.058;9.028;2023-02-03T22:29:02;18.17;;;4.20;;
24102;SDS011;12278;53.058;9.028;2023-02-03T22:33:04;14.50;;;3.93;;
24102;SDS011;12278;53.058;9.028;2023-02-03T22:37:05;13.20;;;4.00;;
24102;SDS011;12278;53.058;9.028;2023-02-03T22:41:07;16.27;;;3.50;;
24102;SDS011;12278;53.058;9.028;2023-02-03T22:45:11;19.20;;;4.20;;
24102;SDS011;12278;53.058;9.028;2023-02-03T22:49:12;12.90;;;3.27;;
24102;SDS011;12278;53.058;9.028;2023-02-03T22:53:13;13.77;;;3.67;;
24102;SDS011;12278;53.058;9.028;2023-02-03T22:57:13;15.63;;;3.93;;
24102;SDS011;12278;53.058;9.028;2023-02-03T23:01:14;11.27;;;2.67;;
24102;SDS011;12278;53.058;9.028;2023-02-03T23:05:15;8.00;;;2.30;;
24102;SDS011;12278;53.058;9.028;2023-02-03T23:09:17;3.97;;;1.47;;
24102;SDS011;12278;53.058;9.028;2023-02-03T23:17:50;3.10;;;1.20;;
24102;SDS011;12278;53.058;9.028;2023-02-03T23:21:51;5.70;;;1.73;;
24102;SDS011;12278;53.058;9.028;2023-02-03T23:25:51;2.30;;;1.03;;
24102;SDS011;12278;53.058;9.028;2023-02-03T23:29:53;6.87;;;1.37;;
24102;SDS011;12278;53.058;9.028;2023-02-03T23:33:54;6.20;;;1.30;;
24102;SDS011;12278;53.058;9.028;2023-02-03T23:38:13;3.73;;;1.30;;
24102;SDS011;12278;53.058;9.028;2023-02-03T23:42:15;2.70;;;1.47;;
24102;SDS011;12278;53.058;9.028;2023-02-03T23:46:15;3.53;;;1.83;;
24102;SDS011;12278;53.058;9.028;2023-02-03T23:50:16;2.13;;;1.37;;
24102;SDS011;12278;53.058;9.028;2023-02-03T23:54:18;4.20;;;2.20;;
24102;SDS011;12278;53.058;9.028;2023-02-03T23:58:18;5.23;;;1.30;;
